sensor_id;sensor_type;location;lat;lon;timestamp;temperature;humidity
68648;SHT31;55632;51.962;16.116;2022-08-04T00:05:05;21.54;61.85
68648;SHT31;55632;51.962;16.116;2022-08-04T00:09:59;21.49;61.75
68648;SHT31;55632;51.962;16.116;2022-08-04T00:15:04;21.51;61.80
68648;SHT31;55632;51.962;16.116;2022-08-04T00:20:07;21.51;62.22
68648;SHT31;55632;51.962;16.116;2022-08-04T00:25:08;21.43;62.49
68648;SHT31;55632;51.962;16.116;2022-08-04T00:30:09;21.33;62.77
68648;SHT31;55632;51.962;16.116;2022-08-04T00:35:13;21.26;63.07
68648;SHT31;55632;51.962;16.116;2022-08-04T00:56:56;20.71;64.54
68648;SHT31;55632;51.962;16.116;2022-08-04T01:12:53;20.54;64.80
68648;SHT31;55632;51.962;16.116;2022-08-04T01:34:05;20.23;66.22
68648;SHT31;55632;51.962;16.116;2022-08-04T01:39:10;20.16;66.42
68648;SHT31;55632;51.962;16.116;2022-08-04T01:44:32;20.06;66.64
68648;SHT31;55632;51.962;16.116;2022-08-04T01:49:36;19.98;66.99
68648;SHT31;55632;51.962;16.116;2022-08-04T01:54:40;19.88;66.98
68648;SHT31;55632;51.962;16.116;2022-08-04T01:59:42;19.84;67.12
68648;SHT31;55632;51.962;16.116;2022-08-04T02:04:45;19.75;67.11
68648;SHT31;55632;51.962;16.116;2022-08-04T02:20:32;19.63;67.28
68648;SHT31;55632;51.962;16.116;2022-08-04T02:25:46;19.60;67.21
68648;SHT31;55632;51.962;16.116;2022-08-04T02:36:23;19.53;67.12
68648;SHT31;55632;51.962;16.116;2022-08-04T02:41:30;19.50;67.10
68648;SHT31;55632;51.962;16.116;2022-08-04T02:46:33;19.49;67.16
68648;SHT31;55632;51.962;16.116;2022-08-04T02:51:39;19.45;67.39
68648;SHT31;55632;51.962;16.116;2022-08-04T02:56:43;19.36;67.63
68648;SHT31;55632;51.962;16.116;2022-08-04T03:01:45;19.33;67.96
68648;SHT31;55632;51.962;16.116;2022-08-04T03:17:16;19.14;68.03
68648;SHT31;55632;51.962;16.116;2022-08-04T03:33:34;19.09;68.11
68648;SHT31;55632;51.962;16.116;2022-08-04T04:11:45;20.30;68.34
68648;SHT31;55632;51.962;16.116;2022-08-04T04:28:26;21.96;65.60
68648;SHT31;55632;51.962;16.116;2022-08-04T04:39:00;22.91;63.44
68648;SHT31;55632;51.962;16.116;2022-08-04T04:44:45;23.43;61.92
68648;SHT31;55632;51.962;16.116;2022-08-04T04:49:58;23.89;60.40
68648;SHT31;55632;51.962;16.116;2022-08-04T04:55:24;24.33;58.95
68648;SHT31;55632;51.962;16.116;2022-08-04T05:22:30;26.07;52.75
68648;SHT31;55632;51.962;16.116;2022-08-04T05:27:39;26.34;52.03
68648;SHT31;55632;51.962;16.116;2022-08-04T05:33:06;26.62;51.33
68648;SHT31;55632;51.962;16.116;2022-08-04T05:38:14;26.90;50.42
68648;SHT31;55632;51.962;16.116;2022-08-04T05:43:15;27.10;50.19
68648;SHT31;55632;51.962;16.116;2022-08-04T05:48:17;27.29;49.56
68648;SHT31;55632;51.962;16.116;2022-08-04T05:53:19;27.44;49.21
68648;SHT31;55632;51.962;16.116;2022-08-04T05:58:20;27.61;48.60
68648;SHT31;55632;51.962;16.116;2022-08-04T06:03:22;27.81;48.43
68648;SHT31;55632;51.962;16.116;2022-08-04T06:08:25;28.01;47.63
68648;SHT31;55632;51.962;16.116;2022-08-04T06:13:38;28.16;46.75
68648;SHT31;55632;51.962;16.116;2022-08-04T06:18:43;28.35;46.79
68648;SHT31;55632;51.962;16.116;2022-08-04T06:23:45;28.53;46.48
68648;SHT31;55632;51.962;16.116;2022-08-04T06:28:50;28.75;45.94
68648;SHT31;55632;51.962;16.116;2022-08-04T06:33:51;28.94;45.90
68648;SHT31;55632;51.962;16.116;2022-08-04T06:38:53;29.24;45.59
68648;SHT31;55632;51.962;16.116;2022-08-04T06:43:59;29.51;45.03
68648;SHT31;55632;51.962;16.116;2022-08-04T06:49:01;29.70;44.54
68648;SHT31;55632;51.962;16.116;2022-08-04T06:54:04;29.90;44.38
68648;SHT31;55632;51.962;16.116;2022-08-04T06:59:10;30.04;43.33
68648;SHT31;55632;51.962;16.116;2022-08-04T07:04:11;30.21;42.91
68648;SHT31;55632;51.962;16.116;2022-08-04T07:09:12;30.34;43.00
68648;SHT31;55632;51.962;16.116;2022-08-04T07:14:14;30.58;42.36
68648;SHT31;55632;51.962;16.116;2022-08-04T07:19:16;30.72;42.31
68648;SHT31;55632;51.962;16.116;2022-08-04T07:24:20;30.91;41.27
68648;SHT31;55632;51.962;16.116;2022-08-04T07:29:34;31.11;40.82
68648;SHT31;55632;51.962;16.116;2022-08-04T07:34:36;31.17;40.21
68648;SHT31;55632;51.962;16.116;2022-08-04T07:49:32;31.83;39.60
68648;SHT31;55632;51.962;16.116;2022-08-04T07:54:38;31.91;39.63
68648;SHT31;55632;51.962;16.116;2022-08-04T07:59:40;32.10;38.56
68648;SHT31;55632;51.962;16.116;2022-08-04T08:04:42;32.07;38.49
68648;SHT31;55632;51.962;16.116;2022-08-04T08:09:43;32.24;38.64
68648;SHT31;55632;51.962;16.116;2022-08-04T08:14:46;32.41;38.20
68648;SHT31;55632;51.962;16.116;2022-08-04T08:19:47;32.46;37.99
68648;SHT31;55632;51.962;16.116;2022-08-04T08:24:48;32.46;38.03
68648;SHT31;55632;51.962;16.116;2022-08-04T08:29:49;32.56;38.27
68648;SHT31;55632;51.962;16.116;2022-08-04T08:34:50;32.69;37.37
68648;SHT31;55632;51.962;16.116;2022-08-04T09:07:09;33.34;35.33
68648;SHT31;55632;51.962;16.116;2022-08-04T09:12:29;33.55;34.24
68648;SHT31;55632;51.962;16.116;2022-08-04T09:17:56;33.73;33.99
68648;SHT31;55632;51.962;16.116;2022-08-04T09:23:08;33.94;33.70
68648;SHT31;55632;51.962;16.116;2022-08-04T09:28:23;34.07;32.69
68648;SHT31;55632;51.962;16.116;2022-08-04T09:33:40;34.07;32.42
68648;SHT31;55632;51.962;16.116;2022-08-04T09:39:00;34.08;32.03
68648;SHT31;55632;51.962;16.116;2022-08-04T09:49:40;34.15;31.63
68648;SHT31;55632;51.962;16.116;2022-08-04T09:54:51;34.21;32.06
68648;SHT31;55632;51.962;16.116;2022-08-04T09:59:57;34.37;32.17
68648;SHT31;55632;51.962;16.116;2022-08-04T10:05:24;34.53;32.03
68648;SHT31;55632;51.962;16.116;2022-08-04T10:16:23;34.69;31.40
68648;SHT31;55632;51.962;16.116;2022-08-04T10:22:02;34.67;31.27
68648;SHT31;55632;51.962;16.116;2022-08-04T10:27:15;34.83;31.58
68648;SHT31;55632;51.962;16.116;2022-08-04T10:33:27;34.89;30.79
68648;SHT31;55632;51.962;16.116;2022-08-04T10:43:31;34.80;30.23
68648;SHT31;55632;51.962;16.116;2022-08-04T10:48:58;34.82;30.70
68648;SHT31;55632;51.962;16.116;2022-08-04T10:54:44;34.80;30.15
68648;SHT31;55632;51.962;16.116;2022-08-04T10:59:59;34.79;29.97
68648;SHT31;55632;51.962;16.116;2022-08-04T11:05:41;34.67;29.87
68648;SHT31;55632;51.962;16.116;2022-08-04T11:11:19;34.82;30.52
68648;SHT31;55632;51.962;16.116;2022-08-04T11:16:43;34.82;29.87
68648;SHT31;55632;51.962;16.116;2022-08-04T11:21:55;34.83;30.28
68648;SHT31;55632;51.962;16.116;2022-08-04T11:27:04;34.82;29.97
68648;SHT31;55632;51.962;16.116;2022-08-04T11:32:18;34.73;29.95
68648;SHT31;55632;51.962;16.116;2022-08-04T11:37:47;34.66;30.19
68648;SHT31;55632;51.962;16.116;2022-08-04T11:43:03;34.63;30.34
68648;SHT31;55632;51.962;16.116;2022-08-04T11:48:18;34.57;30.66
68648;SHT31;55632;51.962;16.116;2022-08-04T11:53:25;34.60;30.53
68648;SHT31;55632;51.962;16.116;2022-08-04T11:58:27;34.67;30.94
68648;SHT31;55632;51.962;16.116;2022-08-04T12:09:02;34.93;30.56
68648;SHT31;55632;51.962;16.116;2022-08-04T12:14:37;34.89;30.37
68648;SHT31;55632;51.962;16.116;2022-08-04T12:19:51;34.83;30.47
68648;SHT31;55632;51.962;16.116;2022-08-04T12:25:08;34.87;30.25
68648;SHT31;55632;51.962;16.116;2022-08-04T12:30:12;35.00;30.67
68648;SHT31;55632;51.962;16.116;2022-08-04T12:35:39;35.04;29.73
68648;SHT31;55632;51.962;16.116;2022-08-04T12:40:50;35.00;30.21
68648;SHT31;55632;51.962;16.116;2022-08-04T12:46:01;34.94;29.95
68648;SHT31;55632;51.962;16.116;2022-08-04T12:51:04;34.94;30.03
68648;SHT31;55632;51.962;16.116;2022-08-04T12:56:10;34.89;29.99
68648;SHT31;55632;51.962;16.116;2022-08-04T13:01:20;34.86;30.02
68648;SHT31;55632;51.962;16.116;2022-08-04T13:06:34;34.72;30.52
68648;SHT31;55632;51.962;16.116;2022-08-04T13:12:01;34.67;30.96
68648;SHT31;55632;51.962;16.116;2022-08-04T13:17:03;34.86;31.24
68648;SHT31;55632;51.962;16.116;2022-08-04T13:22:06;35.04;31.17
68648;SHT31;55632;51.962;16.116;2022-08-04T13:27:09;35.14;31.25
68648;SHT31;55632;51.962;16.116;2022-08-04T13:32:17;35.08;30.49
68648;SHT31;55632;51.962;16.116;2022-08-04T13:37:24;35.10;30.90
68648;SHT31;55632;51.962;16.116;2022-08-04T13:42:28;35.25;30.61
68648;SHT31;55632;51.962;16.116;2022-08-04T13:47:31;35.24;30.35
68648;SHT31;55632;51.962;16.116;2022-08-04T13:52:33;35.11;30.45
68648;SHT31;55632;51.962;16.116;2022-08-04T13:57:43;34.93;29.98
68648;SHT31;55632;51.962;16.116;2022-08-04T14:02:48;34.76;30.36
68648;SHT31;55632;51.962;16.116;2022-08-04T14:07:53;34.66;30.41
68648;SHT31;55632;51.962;16.116;2022-08-04T14:12:56;34.56;30.71
68648;SHT31;55632;51.962;16.116;2022-08-04T14:18:16;34.45;30.90
68648;SHT31;55632;51.962;16.116;2022-08-04T14:23:21;34.44;30.91
68648;SHT31;55632;51.962;16.116;2022-08-04T14:28:29;34.38;31.10
68648;SHT31;55632;51.962;16.116;2022-08-04T14:33:39;34.35;31.46
68648;SHT31;55632;51.962;16.116;2022-08-04T14:38:55;34.32;31.11
68648;SHT31;55632;51.962;16.116;2022-08-04T14:44:02;34.42;31.10
68648;SHT31;55632;51.962;16.116;2022-08-04T14:49:09;34.42;31.12
68648;SHT31;55632;51.962;16.116;2022-08-04T14:54:14;34.42;31.24
68648;SHT31;55632;51.962;16.116;2022-08-04T14:59:16;34.32;31.31
68648;SHT31;55632;51.962;16.116;2022-08-04T15:04:17;34.34;32.08
68648;SHT31;55632;51.962;16.116;2022-08-04T15:09:22;34.38;31.55
68648;SHT31;55632;51.962;16.116;2022-08-04T15:14:26;34.28;31.67
68648;SHT31;55632;51.962;16.116;2022-08-04T15:19:30;34.17;31.77
68648;SHT31;55632;51.962;16.116;2022-08-04T15:24:31;34.08;32.09
68648;SHT31;55632;51.962;16.116;2022-08-04T15:29:43;33.98;32.02
68648;SHT31;55632;51.962;16.116;2022-08-04T15:34:47;33.96;32.58
68648;SHT31;55632;51.962;16.116;2022-08-04T15:39:57;33.94;32.94
68648;SHT31;55632;51.962;16.116;2022-08-04T15:50:12;33.79;32.64
68648;SHT31;55632;51.962;16.116;2022-08-04T15:55:32;33.69;32.28
68648;SHT31;55632;51.962;16.116;2022-08-04T16:05:49;33.61;32.86
68648;SHT31;55632;51.962;16.116;2022-08-04T16:10:50;33.51;32.97
68648;SHT31;55632;51.962;16.116;2022-08-04T16:15:58;33.48;32.92
68648;SHT31;55632;51.962;16.116;2022-08-04T16:21:06;33.39;33.16
68648;SHT31;55632;51.962;16.116;2022-08-04T16:26:07;33.32;33.24
68648;SHT31;55632;51.962;16.116;2022-08-04T16:31:11;33.24;33.39
68648;SHT31;55632;51.962;16.116;2022-08-04T16:36:12;33.17;33.59
68648;SHT31;55632;51.962;16.116;2022-08-04T16:41:37;33.04;33.58
68648;SHT31;55632;51.962;16.116;2022-08-04T16:46:42;32.96;33.70
68648;SHT31;55632;51.962;16.116;2022-08-04T16:51:43;32.87;33.58
68648;SHT31;55632;51.962;16.116;2022-08-04T16:56:45;32.76;33.77
68648;SHT31;55632;51.962;16.116;2022-08-04T17:01:51;32.59;33.97
68648;SHT31;55632;51.962;16.116;2022-08-04T17:07:03;32.43;34.39
68648;SHT31;55632;51.962;16.116;2022-08-04T17:12:07;32.34;34.55
68648;SHT31;55632;51.962;16.116;2022-08-04T17:17:08;32.21;34.82
68648;SHT31;55632;51.962;16.116;2022-08-04T17:22:10;32.07;35.17
68648;SHT31;55632;51.962;16.116;2022-08-04T17:27:11;31.90;35.24
68648;SHT31;55632;51.962;16.116;2022-08-04T17:32:19;31.80;35.53
68648;SHT31;55632;51.962;16.116;2022-08-04T17:37:25;31.70;35.77
68648;SHT31;55632;51.962;16.116;2022-08-04T17:42:31;31.58;36.08
68648;SHT31;55632;51.962;16.116;2022-08-04T17:47:48;31.41;36.09
68648;SHT31;55632;51.962;16.116;2022-08-04T17:53:03;31.29;36.53
68648;SHT31;55632;51.962;16.116;2022-08-04T17:58:18;31.17;36.89
68648;SHT31;55632;51.962;16.116;2022-08-04T18:03:29;31.00;37.30
68648;SHT31;55632;51.962;16.116;2022-08-04T18:08:34;30.87;37.58
68648;SHT31;55632;51.962;16.116;2022-08-04T18:13:39;30.73;37.92
68648;SHT31;55632;51.962;16.116;2022-08-04T18:18:42;30.55;38.24
68648;SHT31;55632;51.962;16.116;2022-08-04T18:23:43;30.41;38.68
68648;SHT31;55632;51.962;16.116;2022-08-04T18:28:44;30.21;39.17
68648;SHT31;55632;51.962;16.116;2022-08-04T18:33:45;30.03;39.65
68648;SHT31;55632;51.962;16.116;2022-08-04T18:38:46;29.84;40.15
68648;SHT31;55632;51.962;16.116;2022-08-04T18:43:50;29.65;40.60
68648;SHT31;55632;51.962;16.116;2022-08-04T18:48:53;29.45;41.04
68648;SHT31;55632;51.962;16.116;2022-08-04T18:53:54;29.27;41.42
68648;SHT31;55632;51.962;16.116;2022-08-04T18:58:54;29.08;41.75
68648;SHT31;55632;51.962;16.116;2022-08-04T19:03:55;28.93;42.15
68648;SHT31;55632;51.962;16.116;2022-08-04T19:08:56;28.72;42.36
68648;SHT31;55632;51.962;16.116;2022-08-04T19:13:59;28.59;42.57
68648;SHT31;55632;51.962;16.116;2022-08-04T19:19:03;28.45;42.80
68648;SHT31;55632;51.962;16.116;2022-08-04T19:24:06;28.27;42.99
68648;SHT31;55632;51.962;16.116;2022-08-04T19:29:07;28.13;43.19
68648;SHT31;55632;51.962;16.116;2022-08-04T19:34:09;28.00;43.38
68648;SHT31;55632;51.962;16.116;2022-08-04T19:39:09;27.82;43.67
68648;SHT31;55632;51.962;16.116;2022-08-04T19:44:13;27.62;44.14
68648;SHT31;55632;51.962;16.116;2022-08-04T19:49:14;27.38;44.78
68648;SHT31;55632;51.962;16.116;2022-08-04T19:54:16;27.14;45.49
68648;SHT31;55632;51.962;16.116;2022-08-04T19:59:17;26.83;46.00
68648;SHT31;55632;51.962;16.116;2022-08-04T20:04:21;26.62;46.63
68648;SHT31;55632;51.962;16.116;2022-08-04T20:09:23;26.37;47.18
68648;SHT31;55632;51.962;16.116;2022-08-04T20:14:24;26.16;47.69
68648;SHT31;55632;51.962;16.116;2022-08-04T20:19:28;25.99;47.94
68648;SHT31;55632;51.962;16.116;2022-08-04T20:24:29;25.86;48.16
68648;SHT31;55632;51.962;16.116;2022-08-04T20:29:30;25.81;48.36
68648;SHT31;55632;51.962;16.116;2022-08-04T20:34:31;25.65;48.69
68648;SHT31;55632;51.962;16.116;2022-08-04T20:39:37;25.52;49.09
68648;SHT31;55632;51.962;16.116;2022-08-04T20:44:40;25.38;49.59
68648;SHT31;55632;51.962;16.116;2022-08-04T20:49:41;25.20;49.86
68648;SHT31;55632;51.962;16.116;2022-08-04T20:54:48;25.09;50.00
68648;SHT31;55632;51.962;16.116;2022-08-04T20:59:52;25.07;50.00
68648;SHT31;55632;51.962;16.116;2022-08-04T21:04:55;25.07;49.98
68648;SHT31;55632;51.962;16.116;2022-08-04T21:10:01;25.00;50.16
68648;SHT31;55632;51.962;16.116;2022-08-04T21:15:03;24.96;50.25
68648;SHT31;55632;51.962;16.116;2022-08-04T21:20:05;24.90;50.30
68648;SHT31;55632;51.962;16.116;2022-08-04T21:25:07;24.93;50.26
68648;SHT31;55632;51.962;16.116;2022-08-04T21:30:12;24.99;50.19
68648;SHT31;55632;51.962;16.116;2022-08-04T21:35:13;25.10;49.92
68648;SHT31;55632;51.962;16.116;2022-08-04T21:40:14;25.14;49.71
68648;SHT31;55632;51.962;16.116;2022-08-04T21:45:15;25.27;49.43
68648;SHT31;55632;51.962;16.116;2022-08-04T21:50:19;25.33;49.17
68648;SHT31;55632;51.962;16.116;2022-08-04T21:55:19;25.35;48.97
68648;SHT31;55632;51.962;16.116;2022-08-04T22:00:20;25.44;48.73
68648;SHT31;55632;51.962;16.116;2022-08-04T22:05:22;25.48;48.60
68648;SHT31;55632;51.962;16.116;2022-08-04T22:10:23;25.47;48.57
68648;SHT31;55632;51.962;16.116;2022-08-04T22:15:25;25.45;48.53
68648;SHT31;55632;51.962;16.116;2022-08-04T22:20:25;25.47;48.48
68648;SHT31;55632;51.962;16.116;2022-08-04T22:25:26;25.44;48.61
68648;SHT31;55632;51.962;16.116;2022-08-04T22:30:29;25.40;48.90
68648;SHT31;55632;51.962;16.116;2022-08-04T22:35:30;25.31;49.20
68648;SHT31;55632;51.962;16.116;2022-08-04T22:40:32;25.23;49.54
68648;SHT31;55632;51.962;16.116;2022-08-04T22:45:33;25.17;49.72
68648;SHT31;55632;51.962;16.116;2022-08-04T22:50:37;25.14;49.94
68648;SHT31;55632;51.962;16.116;2022-08-04T22:55:38;25.07;50.12
68648;SHT31;55632;51.962;16.116;2022-08-04T23:00:39;25.03;50.34
68648;SHT31;55632;51.962;16.116;2022-08-04T23:05:40;24.96;50.70
68648;SHT31;55632;51.962;16.116;2022-08-04T23:10:42;24.89;50.83
68648;SHT31;55632;51.962;16.116;2022-08-04T23:15:45;24.83;51.11
68648;SHT31;55632;51.962;16.116;2022-08-04T23:20:46;24.71;51.41
68648;SHT31;55632;51.962;16.116;2022-08-04T23:25:47;24.64;51.75
68648;SHT31;55632;51.962;16.116;2022-08-04T23:30:48;24.51;52.13
68648;SHT31;55632;51.962;16.116;2022-08-04T23:35:49;24.43;52.41
68648;SHT31;55632;51.962;16.116;2022-08-04T23:40:50;24.33;52.77
68648;SHT31;55632;51.962;16.116;2022-08-04T23:45:51;24.20;53.13
68648;SHT31;55632;51.962;16.116;2022-08-04T23:50:52;24.12;53.46
68648;SHT31;55632;51.962;16.116;2022-08-04T23:55:53;24.03;53.77
